sensor_id;sensor_type;location;lat;lon;timestamp;pressure;altitude;pressure_sealevel;temperature;humidity
83625;BME280;73589;41.158;-73.238;2023-11-21T00:01:53;103124.67;;;24.67;39.17
83625;BME280;73589;41.158;-73.238;2023-11-21T00:04:23;103127.10;;;22.80;42.80
83625;BME280;73589;41.158;-73.238;2023-11-21T00:06:54;103124.53;;;24.22;40.17
83625;BME280;73589;41.158;-73.238;2023-11-21T00:09:25;103128.64;;;24.31;39.49
83625;BME280;73589;41.158;-73.238;2023-11-21T00:11:54;103132.70;;;24.41;39.48
83625;BME280;73589;41.158;-73.238;2023-11-21T00:14:25;103134.76;;;24.56;39.22
83625;BME280;73589;41.158;-73.238;2023-11-21T00:16:56;103139.67;;;24.61;39.14
83625;BME280;73589;41.158;-73.238;2023-11-21T00:19:26;103140.88;;;23.35;41.21
83625;BME280;73589;41.158;-73.238;2023-11-21T00:21:56;103142.65;;;23.45;41.72
83625;BME280;73589;41.158;-73.238;2023-11-21T00:24:27;103142.33;;;24.43;39.77
83625;BME280;73589;41.158;-73.238;2023-11-21T00:26:57;103153.56;;;24.72;39.16
83625;BME280;73589;41.158;-73.238;2023-11-21T00:29:28;103163.12;;;24.76;39.03
83625;BME280;73589;41.158;-73.238;2023-11-21T00:31:58;103166.66;;;24.73;39.12
83625;BME280;73589;41.158;-73.238;2023-11-21T00:34:29;103174.69;;;24.68;39.26
83625;BME280;73589;41.158;-73.238;2023-11-21T00:37:00;103176.87;;;24.70;39.22
83625;BME280;73589;41.158;-73.238;2023-11-21T00:39:30;103182.21;;;24.63;39.37
83625;BME280;73589;41.158;-73.238;2023-11-21T00:42:01;103187.63;;;24.55;39.45
83625;BME280;73589;41.158;-73.238;2023-11-21T00:44:32;103195.18;;;22.15;44.54
83625;BME280;73589;41.158;-73.238;2023-11-21T00:47:02;103198.30;;;23.70;41.96
83625;BME280;73589;41.158;-73.238;2023-11-21T00:49:33;103204.42;;;24.34;40.48
83625;BME280;73589;41.158;-73.238;2023-11-21T00:52:05;103208.32;;;24.57;39.78
83625;BME280;73589;41.158;-73.238;2023-11-21T00:54:34;103210.58;;;24.58;39.73
83625;BME280;73589;41.158;-73.238;2023-11-21T00:57:05;103212.20;;;24.58;39.68
83625;BME280;73589;41.158;-73.238;2023-11-21T00:59:36;103209.70;;;24.56;39.71
83625;BME280;73589;41.158;-73.238;2023-11-21T01:02:06;103206.45;;;24.54;39.72
83625;BME280;73589;41.158;-73.238;2023-11-21T01:04:37;103210.48;;;24.51;39.72
83625;BME280;73589;41.158;-73.238;2023-11-21T01:07:07;103217.65;;;23.29;42.19
83625;BME280;73589;41.158;-73.238;2023-11-21T01:09:37;103216.16;;;23.14;42.62
83625;BME280;73589;41.158;-73.238;2023-11-21T01:12:09;103215.81;;;24.31;40.39
83625;BME280;73589;41.158;-73.238;2023-11-21T01:14:39;103218.82;;;24.58;39.70
83625;BME280;73589;41.158;-73.238;2023-11-21T01:17:08;103224.06;;;24.62;39.58
83625;BME280;73589;41.158;-73.238;2023-11-21T01:19:40;103227.19;;;24.60;40.03
83625;BME280;73589;41.158;-73.238;2023-11-21T01:22:10;103234.15;;;24.54;40.19
83625;BME280;73589;41.158;-73.238;2023-11-21T01:24:41;103236.82;;;24.60;40.12
83625;BME280;73589;41.158;-73.238;2023-11-21T01:27:12;103238.80;;;24.60;40.00
83625;BME280;73589;41.158;-73.238;2023-11-21T01:29:42;103247.99;;;22.56;43.88
83625;BME280;73589;41.158;-73.238;2023-11-21T01:32:13;103243.33;;;23.80;42.05
83625;BME280;73589;41.158;-73.238;2023-11-21T01:34:43;103245.72;;;24.38;40.50
83625;BME280;73589;41.158;-73.238;2023-11-21T01:37:13;103250.36;;;24.47;40.14
83625;BME280;73589;41.158;-73.238;2023-11-21T01:39:44;103248.24;;;24.54;39.95
83625;BME280;73589;41.158;-73.238;2023-11-21T01:42:14;103249.29;;;24.57;39.84
83625;BME280;73589;41.158;-73.238;2023-11-21T01:44:45;103252.35;;;24.49;39.92
83625;BME280;73589;41.158;-73.238;2023-11-21T01:47:17;103265.60;;;24.55;39.85
83625;BME280;73589;41.158;-73.238;2023-11-21T01:49:47;103267.77;;;24.02;42.87
83625;BME280;73589;41.158;-73.238;2023-11-21T01:52:16;103272.73;;;23.11;46.19
83625;BME280;73589;41.158;-73.238;2023-11-21T01:54:48;103263.56;;;24.37;43.42
83625;BME280;73589;41.158;-73.238;2023-11-21T01:57:20;103269.04;;;24.67;42.54
83625;BME280;73589;41.158;-73.238;2023-11-21T01:59:49;103268.16;;;24.79;42.74
83625;BME280;73589;41.158;-73.238;2023-11-21T02:02:20;103272.73;;;24.78;42.90
83625;BME280;73589;41.158;-73.238;2023-11-21T02:04:49;103275.85;;;24.79;42.89
83625;BME280;73589;41.158;-73.238;2023-11-21T02:07:20;103286.93;;;24.76;42.92
83625;BME280;73589;41.158;-73.238;2023-11-21T02:09:51;103293.77;;;24.77;43.01
83625;BME280;73589;41.158;-73.238;2023-11-21T02:12:21;103288.13;;;24.78;43.15
83625;BME280;73589;41.158;-73.238;2023-11-21T02:14:52;103297.04;;;24.78;43.04
83625;BME280;73589;41.158;-73.238;2023-11-21T02:17:23;103305.56;;;24.82;42.90
83625;BME280;73589;41.158;-73.238;2023-11-21T02:19:53;103307.32;;;24.80;42.80
83625;BME280;73589;41.158;-73.238;2023-11-21T02:22:24;103300.16;;;24.76;42.92
83625;BME280;73589;41.158;-73.238;2023-11-21T02:24:55;103304.13;;;24.72;42.96
83625;BME280;73589;41.158;-73.238;2023-11-21T02:27:25;103314.84;;;24.74;43.01
83625;BME280;73589;41.158;-73.238;2023-11-21T02:29:56;103308.51;;;24.75;42.98
83625;BME280;73589;41.158;-73.238;2023-11-21T02:32:27;103305.91;;;24.71;43.07
83625;BME280;73589;41.158;-73.238;2023-11-21T02:34:57;103312.89;;;24.72;42.95
83625;BME280;73589;41.158;-73.238;2023-11-21T02:37:29;103314.02;;;24.69;43.02
83625;BME280;73589;41.158;-73.238;2023-11-21T02:39:58;103315.29;;;24.69;43.06
83625;BME280;73589;41.158;-73.238;2023-11-21T02:42:29;103311.89;;;24.49;43.71
83625;BME280;73589;41.158;-73.238;2023-11-21T02:44:59;103318.90;;;23.57;45.72
83625;BME280;73589;41.158;-73.238;2023-11-21T02:47:30;103321.33;;;24.53;43.33
83625;BME280;73589;41.158;-73.238;2023-11-21T02:50:00;103315.95;;;24.66;43.11
83625;BME280;73589;41.158;-73.238;2023-11-21T02:52:31;103322.29;;;24.71;42.80
83625;BME280;73589;41.158;-73.238;2023-11-21T02:55:02;103328.54;;;24.74;43.08
83625;BME280;73589;41.158;-73.238;2023-11-21T02:57:32;103318.29;;;24.69;43.17
83625;BME280;73589;41.158;-73.238;2023-11-21T03:00:04;103313.62;;;24.70;43.16
83625;BME280;73589;41.158;-73.238;2023-11-21T03:02:34;103320.77;;;24.70;43.34
83625;BME280;73589;41.158;-73.238;2023-11-21T03:05:05;103320.70;;;24.68;43.39
83625;BME280;73589;41.158;-73.238;2023-11-21T03:07:36;103314.98;;;24.66;43.45
83625;BME280;73589;41.158;-73.238;2023-11-21T03:10:08;103313.54;;;24.12;44.06
83625;BME280;73589;41.158;-73.238;2023-11-21T03:12:36;103319.62;;;23.20;45.76
83625;BME280;73589;41.158;-73.238;2023-11-21T03:15:08;103317.08;;;23.65;44.60
83625;BME280;73589;41.158;-73.238;2023-11-21T03:17:37;103311.52;;;24.43;43.08
83625;BME280;73589;41.158;-73.238;2023-11-21T03:20:09;103309.35;;;24.50;42.75
83625;BME280;73589;41.158;-73.238;2023-11-21T03:22:39;103313.19;;;24.53;42.66
83625;BME280;73589;41.158;-73.238;2023-11-21T03:25:10;103320.29;;;24.55;42.66
83625;BME280;73589;41.158;-73.238;2023-11-21T03:27:40;103320.53;;;24.51;42.60
83625;BME280;73589;41.158;-73.238;2023-11-21T03:30:11;103312.34;;;24.55;42.47
83625;BME280;73589;41.158;-73.238;2023-11-21T03:32:41;103308.35;;;24.57;42.32
83625;BME280;73589;41.158;-73.238;2023-11-21T03:35:12;103305.65;;;24.50;42.27
83625;BME280;73589;41.158;-73.238;2023-11-21T03:37:42;103303.82;;;22.89;45.39
83625;BME280;73589;41.158;-73.238;2023-11-21T03:40:13;103297.36;;;23.33;44.32
83625;BME280;73589;41.158;-73.238;2023-11-21T03:42:43;103297.97;;;24.17;42.68
83625;BME280;73589;41.158;-73.238;2023-11-21T03:45:14;103303.38;;;24.35;42.22
83625;BME280;73589;41.158;-73.238;2023-11-21T03:47:45;103308.00;;;24.37;42.08
83625;BME280;73589;41.158;-73.238;2023-11-21T03:50:14;103308.57;;;24.32;42.17
83625;BME280;73589;41.158;-73.238;2023-11-21T03:52:45;103304.65;;;24.38;42.01
83625;BME280;73589;41.158;-73.238;2023-11-21T03:55:16;103301.99;;;24.38;42.11
83625;BME280;73589;41.158;-73.238;2023-11-21T03:57:46;103295.75;;;24.37;42.08
83625;BME280;73589;41.158;-73.238;2023-11-21T04:00:18;103293.34;;;23.11;44.23
83625;BME280;73589;41.158;-73.238;2023-11-21T04:02:48;103285.32;;;23.36;43.85
83625;BME280;73589;41.158;-73.238;2023-11-21T04:05:19;103281.47;;;23.06;44.88
83625;BME280;73589;41.158;-73.238;2023-11-21T04:07:49;103274.98;;;24.28;42.23
83625;BME280;73589;41.158;-73.238;2023-11-21T04:10:20;103286.70;;;24.46;42.39
83625;BME280;73589;41.158;-73.238;2023-11-21T04:12:50;103287.58;;;24.54;42.06
83625;BME280;73589;41.158;-73.238;2023-11-21T04:15:21;103294.81;;;24.55;41.92
83625;BME280;73589;41.158;-73.238;2023-11-21T04:17:51;103304.22;;;24.60;41.90
83625;BME280;73589;41.158;-73.238;2023-11-21T04:20:22;103303.43;;;24.61;41.89
83625;BME280;73589;41.158;-73.238;2023-11-21T04:22:53;103292.79;;;24.34;41.96
83625;BME280;73589;41.158;-73.238;2023-11-21T04:25:24;103299.64;;;24.33;41.43
83625;BME280;73589;41.158;-73.238;2023-11-21T04:27:54;103321.11;;;24.10;41.96
83625;BME280;73589;41.158;-73.238;2023-11-21T04:30:25;103328.96;;;24.47;41.55
83625;BME280;73589;41.158;-73.238;2023-11-21T04:32:55;103327.32;;;24.47;41.50
83625;BME280;73589;41.158;-73.238;2023-11-21T04:35:26;103331.20;;;24.44;41.82
83625;BME280;73589;41.158;-73.238;2023-11-21T04:37:57;103334.55;;;24.46;41.72
83625;BME280;73589;41.158;-73.238;2023-11-21T04:40:27;103337.98;;;24.51;41.63
83625;BME280;73589;41.158;-73.238;2023-11-21T04:42:57;103336.02;;;24.47;41.64
83625;BME280;73589;41.158;-73.238;2023-11-21T04:45:29;103341.39;;;23.81;42.48
83625;BME280;73589;41.158;-73.238;2023-11-21T04:47:58;103330.33;;;24.26;41.36
83625;BME280;73589;41.158;-73.238;2023-11-21T04:50:29;103334.18;;;23.73;42.40
83625;BME280;73589;41.158;-73.238;2023-11-21T04:53:01;103330.17;;;24.42;41.22
83625;BME280;73589;41.158;-73.238;2023-11-21T04:55:30;103317.92;;;23.10;43.94
83625;BME280;73589;41.158;-73.238;2023-11-21T04:58:01;103301.92;;;24.40;41.59
83625;BME280;73589;41.158;-73.238;2023-11-21T05:00:32;103301.55;;;24.57;41.41
83625;BME280;73589;41.158;-73.238;2023-11-21T05:03:02;103290.43;;;24.62;41.20
83625;BME280;73589;41.158;-73.238;2023-11-21T05:05:33;103274.10;;;24.60;41.42
83625;BME280;73589;41.158;-73.238;2023-11-21T05:08:04;103262.36;;;24.60;41.52
83625;BME280;73589;41.158;-73.238;2023-11-21T05:10:34;103260.40;;;24.39;41.17
83625;BME280;73589;41.158;-73.238;2023-11-21T05:13:05;103250.89;;;23.88;41.94
83625;BME280;73589;41.158;-73.238;2023-11-21T05:15:35;103247.72;;;24.53;41.10
83625;BME280;73589;41.158;-73.238;2023-11-21T05:18:05;103252.56;;;24.50;41.08
83625;BME280;73589;41.158;-73.238;2023-11-21T05:20:36;103258.33;;;24.53;41.12
83625;BME280;73589;41.158;-73.238;2023-11-21T05:23:06;103259.70;;;24.51;40.99
83625;BME280;73589;41.158;-73.238;2023-11-21T05:25:37;103255.95;;;24.45;41.15
83625;BME280;73589;41.158;-73.238;2023-11-21T05:28:08;103248.08;;;24.03;41.51
83625;BME280;73589;41.158;-73.238;2023-11-21T05:30:39;103268.87;;;23.84;41.72
83625;BME280;73589;41.158;-73.238;2023-11-21T05:33:10;103292.59;;;22.38;44.88
83625;BME280;73589;41.158;-73.238;2023-11-21T05:35:40;103298.60;;;23.84;42.52
83625;BME280;73589;41.158;-73.238;2023-11-21T05:38:11;103314.22;;;24.35;41.35
83625;BME280;73589;41.158;-73.238;2023-11-21T05:40:42;103332.71;;;24.54;40.96
83625;BME280;73589;41.158;-73.238;2023-11-21T05:43:12;103334.33;;;24.62;40.85
83625;BME280;73589;41.158;-73.238;2023-11-21T05:45:42;103330.29;;;24.64;40.86
83625;BME280;73589;41.158;-73.238;2023-11-21T05:48:12;103328.08;;;24.58;40.70
83625;BME280;73589;41.158;-73.238;2023-11-21T05:50:43;103328.84;;;24.47;40.65
83625;BME280;73589;41.158;-73.238;2023-11-21T05:53:14;103319.98;;;24.26;41.07
83625;BME280;73589;41.158;-73.238;2023-11-21T05:55:44;103321.89;;;24.57;40.65
83625;BME280;73589;41.158;-73.238;2023-11-21T05:58:15;103333.12;;;24.54;40.95
83625;BME280;73589;41.158;-73.238;2023-11-21T06:00:45;103329.11;;;24.52;41.02
83625;BME280;73589;41.158;-73.238;2023-11-21T06:03:15;103323.11;;;24.52;41.14
83625;BME280;73589;41.158;-73.238;2023-11-21T06:05:46;103330.14;;;24.49;41.19
83625;BME280;73589;41.158;-73.238;2023-11-21T06:08:15;103341.99;;;24.25;41.01
83625;BME280;73589;41.158;-73.238;2023-11-21T06:10:45;103351.97;;;23.45;42.64
83625;BME280;73589;41.158;-73.238;2023-11-21T06:13:17;103348.85;;;24.36;41.45
83625;BME280;73589;41.158;-73.238;2023-11-21T06:15:47;103366.01;;;24.40;40.94
83625;BME280;73589;41.158;-73.238;2023-11-21T06:18:16;103380.82;;;22.40;44.81
83625;BME280;73589;41.158;-73.238;2023-11-21T06:20:47;103381.73;;;23.74;42.71
83625;BME280;73589;41.158;-73.238;2023-11-21T06:23:17;103376.33;;;24.25;41.97
83625;BME280;73589;41.158;-73.238;2023-11-21T06:25:47;103383.29;;;24.19;40.87
83625;BME280;73589;41.158;-73.238;2023-11-21T06:28:19;103392.10;;;24.17;40.90
83625;BME280;73589;41.158;-73.238;2023-11-21T06:30:48;103391.09;;;24.35;40.89
83625;BME280;73589;41.158;-73.238;2023-11-21T06:33:19;103399.45;;;24.34;40.72
83625;BME280;73589;41.158;-73.238;2023-11-21T06:35:50;103403.31;;;24.37;40.68
83625;BME280;73589;41.158;-73.238;2023-11-21T06:38:20;103406.07;;;24.36;40.86
83625;BME280;73589;41.158;-73.238;2023-11-21T06:40:51;103410.56;;;24.35;40.81
83625;BME280;73589;41.158;-73.238;2023-11-21T06:43:22;103394.99;;;24.14;40.94
83625;BME280;73589;41.158;-73.238;2023-11-21T06:45:52;103383.85;;;23.15;42.61
83625;BME280;73589;41.158;-73.238;2023-11-21T06:48:23;103388.83;;;24.16;41.20
83625;BME280;73589;41.158;-73.238;2023-11-21T06:50:53;103391.14;;;24.30;40.87
83625;BME280;73589;41.158;-73.238;2023-11-21T06:53:23;103390.57;;;24.34;40.79
83625;BME280;73589;41.158;-73.238;2023-11-21T06:55:54;103390.27;;;24.33;40.84
83625;BME280;73589;41.158;-73.238;2023-11-21T06:58:25;103381.29;;;23.28;42.98
83625;BME280;73589;41.158;-73.238;2023-11-21T07:00:55;103374.74;;;24.07;41.28
83625;BME280;73589;41.158;-73.238;2023-11-21T07:03:26;103386.00;;;24.15;41.03
83625;BME280;73589;41.158;-73.238;2023-11-21T07:05:56;103377.36;;;24.28;41.22
83625;BME280;73589;41.158;-73.238;2023-11-21T07:08:31;103373.37;;;24.27;40.90
83625;BME280;73589;41.158;-73.238;2023-11-21T07:10:57;103373.43;;;24.29;41.08
83625;BME280;73589;41.158;-73.238;2023-11-21T07:13:27;103364.03;;;24.26;41.26
83625;BME280;73589;41.158;-73.238;2023-11-21T07:15:57;103362.68;;;23.96;41.50
83625;BME280;73589;41.158;-73.238;2023-11-21T07:18:28;103370.95;;;23.21;42.82
83625;BME280;73589;41.158;-73.238;2023-11-21T07:20:58;103362.53;;;22.54;44.45
83625;BME280;73589;41.158;-73.238;2023-11-21T07:23:27;103368.24;;;23.75;42.29
83625;BME280;73589;41.158;-73.238;2023-11-21T07:25:59;103376.56;;;24.22;41.44
83625;BME280;73589;41.158;-73.238;2023-11-21T07:28:29;103375.97;;;24.33;41.20
83625;BME280;73589;41.158;-73.238;2023-11-21T07:31:00;103386.08;;;24.11;41.09
83625;BME280;73589;41.158;-73.238;2023-11-21T07:33:31;103376.55;;;23.92;41.10
83625;BME280;73589;41.158;-73.238;2023-11-21T07:36:00;103364.92;;;24.31;40.89
83625;BME280;73589;41.158;-73.238;2023-11-21T07:38:31;103371.71;;;24.29;40.54
83625;BME280;73589;41.158;-73.238;2023-11-21T07:41:03;103371.20;;;24.26;40.94
83625;BME280;73589;41.158;-73.238;2023-11-21T07:43:33;103369.68;;;24.24;40.94
83625;BME280;73589;41.158;-73.238;2023-11-21T07:46:05;103384.36;;;24.25;40.86
83625;BME280;73589;41.158;-73.238;2023-11-21T07:48:35;103390.79;;;23.91;41.24
83625;BME280;73589;41.158;-73.238;2023-11-21T07:51:04;103394.94;;;23.30;41.99
83625;BME280;73589;41.158;-73.238;2023-11-21T07:53:35;103401.12;;;23.20;42.26
83625;BME280;73589;41.158;-73.238;2023-11-21T07:56:08;103403.96;;;23.05;43.26
83625;BME280;73589;41.158;-73.238;2023-11-21T07:58:37;103399.84;;;24.13;41.13
83625;BME280;73589;41.158;-73.238;2023-11-21T08:01:08;103404.22;;;24.30;40.61
83625;BME280;73589;41.158;-73.238;2023-11-21T08:03:38;103397.73;;;24.37;40.63
83625;BME280;73589;41.158;-73.238;2023-11-21T08:06:08;103384.28;;;24.35;40.54
83625;BME280;73589;41.158;-73.238;2023-11-21T08:08:39;103388.10;;;24.15;40.88
83625;BME280;73589;41.158;-73.238;2023-11-21T08:11:10;103388.57;;;24.19;40.35
83625;BME280;73589;41.158;-73.238;2023-11-21T08:13:41;103388.79;;;24.07;40.84
83625;BME280;73589;41.158;-73.238;2023-11-21T08:16:11;103389.25;;;24.22;40.79
83625;BME280;73589;41.158;-73.238;2023-11-21T08:18:41;103378.54;;;24.28;40.83
83625;BME280;73589;41.158;-73.238;2023-11-21T08:21:13;103378.39;;;24.25;40.68
83625;BME280;73589;41.158;-73.238;2023-11-21T08:23:42;103390.38;;;24.28;40.99
83625;BME280;73589;41.158;-73.238;2023-11-21T08:26:12;103381.05;;;24.28;40.79
83625;BME280;73589;41.158;-73.238;2023-11-21T08:28:43;103377.30;;;23.82;41.29
83625;BME280;73589;41.158;-73.238;2023-11-21T08:31:14;103373.05;;;22.33;44.21
83625;BME280;73589;41.158;-73.238;2023-11-21T08:33:44;103382.69;;;22.35;44.66
83625;BME280;73589;41.158;-73.238;2023-11-21T08:36:14;103384.21;;;23.96;41.56
83625;BME280;73589;41.158;-73.238;2023-11-21T08:38:46;103374.18;;;24.22;41.20
83625;BME280;73589;41.158;-73.238;2023-11-21T08:41:15;103372.36;;;24.30;41.17
83625;BME280;73589;41.158;-73.238;2023-11-21T08:43:49;103381.28;;;24.30;40.76
83625;BME280;73589;41.158;-73.238;2023-11-21T08:46:17;103377.45;;;23.92;41.32
83625;BME280;73589;41.158;-73.238;2023-11-21T08:48:46;103381.45;;;24.10;40.48
83625;BME280;73589;41.158;-73.238;2023-11-21T08:51:18;103377.91;;;23.83;41.11
83625;BME280;73589;41.158;-73.238;2023-11-21T08:53:47;103376.54;;;24.11;40.86
83625;BME280;73589;41.158;-73.238;2023-11-21T08:56:18;103376.39;;;24.12;40.64
83625;BME280;73589;41.158;-73.238;2023-11-21T08:58:49;103377.06;;;24.16;40.65
83625;BME280;73589;41.158;-73.238;2023-11-21T09:01:19;103377.78;;;24.17;40.64
83625;BME280;73589;41.158;-73.238;2023-11-21T09:03:50;103384.00;;;23.97;40.90
83625;BME280;73589;41.158;-73.238;2023-11-21T09:06:20;103387.60;;;23.83;40.61
83625;BME280;73589;41.158;-73.238;2023-11-21T09:08:50;103384.20;;;21.91;44.63
83625;BME280;73589;41.158;-73.238;2023-11-21T09:11:22;103395.97;;;23.47;42.18
83625;BME280;73589;41.158;-73.238;2023-11-21T09:13:51;103400.80;;;24.01;41.04
83625;BME280;73589;41.158;-73.238;2023-11-21T09:16:22;103394.15;;;24.15;40.73
83625;BME280;73589;41.158;-73.238;2023-11-21T09:18:54;103389.47;;;24.14;40.55
83625;BME280;73589;41.158;-73.238;2023-11-21T09:21:23;103366.12;;;24.14;40.38
83625;BME280;73589;41.158;-73.238;2023-11-21T09:23:54;103372.00;;;23.96;40.47
83625;BME280;73589;41.158;-73.238;2023-11-21T09:26:24;103371.74;;;23.39;41.17
83625;BME280;73589;41.158;-73.238;2023-11-21T09:28:55;103362.64;;;23.99;40.31
83625;BME280;73589;41.158;-73.238;2023-11-21T09:31:25;103367.29;;;24.03;40.52
83625;BME280;73589;41.158;-73.238;2023-11-21T09:33:56;103362.96;;;24.04;40.36
83625;BME280;73589;41.158;-73.238;2023-11-21T09:36:27;103374.27;;;24.08;40.26
83625;BME280;73589;41.158;-73.238;2023-11-21T09:38:57;103378.52;;;24.00;40.52
83625;BME280;73589;41.158;-73.238;2023-11-21T09:41:34;103358.40;;;23.75;40.92
83625;BME280;73589;41.158;-73.238;2023-11-21T09:43:58;103365.29;;;22.77;42.25
83625;BME280;73589;41.158;-73.238;2023-11-21T09:46:29;103351.72;;;22.52;43.56
83625;BME280;73589;41.158;-73.238;2023-11-21T09:49:00;103344.74;;;23.78;41.28
83625;BME280;73589;41.158;-73.238;2023-11-21T09:51:30;103350.77;;;24.12;41.10
83625;BME280;73589;41.158;-73.238;2023-11-21T09:54:02;103356.34;;;24.21;40.63
83625;BME280;73589;41.158;-73.238;2023-11-21T09:56:32;103361.95;;;24.19;40.41
83625;BME280;73589;41.158;-73.238;2023-11-21T09:59:02;103345.40;;;23.77;40.98
83625;BME280;73589;41.158;-73.238;2023-11-21T10:01:33;103356.25;;;24.00;40.27
83625;BME280;73589;41.158;-73.238;2023-11-21T10:04:04;103366.47;;;23.84;40.59
83625;BME280;73589;41.158;-73.238;2023-11-21T10:06:34;103362.81;;;24.05;40.67
83625;BME280;73589;41.158;-73.238;2023-11-21T10:09:05;103362.85;;;24.02;40.57
83625;BME280;73589;41.158;-73.238;2023-11-21T10:11:34;103369.44;;;24.05;40.46
83625;BME280;73589;41.158;-73.238;2023-11-21T10:14:05;103373.25;;;24.06;40.53
83625;BME280;73589;41.158;-73.238;2023-11-21T10:16:38;103373.89;;;23.84;40.98
83625;BME280;73589;41.158;-73.238;2023-11-21T10:19:06;103377.81;;;23.90;40.58
83625;BME280;73589;41.158;-73.238;2023-11-21T10:21:38;103389.81;;;23.64;41.11
83625;BME280;73589;41.158;-73.238;2023-11-21T10:24:08;103384.34;;;22.17;44.12
83625;BME280;73589;41.158;-73.238;2023-11-21T10:26:38;103387.14;;;23.62;41.35
83625;BME280;73589;41.158;-73.238;2023-11-21T10:29:09;103393.52;;;23.93;41.06
83625;BME280;73589;41.158;-73.238;2023-11-21T10:31:40;103388.75;;;24.00;40.90
83625;BME280;73589;41.158;-73.238;2023-11-21T10:34:13;103385.85;;;24.01;40.75
83625;BME280;73589;41.158;-73.238;2023-11-21T10:36:40;103386.53;;;23.81;40.80
83625;BME280;73589;41.158;-73.238;2023-11-21T10:39:16;103397.33;;;23.93;40.15
83625;BME280;73589;41.158;-73.238;2023-11-21T10:41:43;103409.34;;;23.55;40.94
83625;BME280;73589;41.158;-73.238;2023-11-21T10:44:11;103395.82;;;23.95;40.44
83625;BME280;73589;41.158;-73.238;2023-11-21T10:46:43;103389.33;;;24.03;40.30
83625;BME280;73589;41.158;-73.238;2023-11-21T10:49:12;103391.34;;;24.03;40.33
83625;BME280;73589;41.158;-73.238;2023-11-21T10:51:44;103390.40;;;23.99;40.73
83625;BME280;73589;41.158;-73.238;2023-11-21T10:54:18;103382.57;;;23.95;40.69
83625;BME280;73589;41.158;-73.238;2023-11-21T10:56:43;103384.05;;;23.79;40.69
83625;BME280;73589;41.158;-73.238;2023-11-21T10:59:13;103392.09;;;22.09;44.09
83625;BME280;73589;41.158;-73.238;2023-11-21T11:01:45;103385.31;;;23.16;43.08
83625;BME280;73589;41.158;-73.238;2023-11-21T11:04:15;103389.73;;;23.85;41.43
83625;BME280;73589;41.158;-73.238;2023-11-21T11:06:49;103382.43;;;24.02;40.98
83625;BME280;73589;41.158;-73.238;2023-11-21T11:09:17;103378.26;;;24.08;40.74
83625;BME280;73589;41.158;-73.238;2023-11-21T11:11:46;103384.36;;;24.13;40.92
83625;BME280;73589;41.158;-73.238;2023-11-21T11:14:19;103381.23;;;23.67;41.48
83625;BME280;73589;41.158;-73.238;2023-11-21T11:16:49;103373.84;;;23.93;40.55
83625;BME280;73589;41.158;-73.238;2023-11-21T11:19:18;103377.47;;;23.80;41.08
83625;BME280;73589;41.158;-73.238;2023-11-21T11:21:57;103374.86;;;24.06;40.71
83625;BME280;73589;41.158;-73.238;2023-11-21T11:24:33;103379.37;;;24.07;40.72
83625;BME280;73589;41.158;-73.238;2023-11-21T11:26:54;103373.84;;;24.09;40.77
83625;BME280;73589;41.158;-73.238;2023-11-21T11:29:33;103376.47;;;24.12;41.14
83625;BME280;73589;41.158;-73.238;2023-11-21T11:32:02;103376.94;;;24.06;41.08
83625;BME280;73589;41.158;-73.238;2023-11-21T11:34:28;103368.29;;;23.88;41.06
83625;BME280;73589;41.158;-73.238;2023-11-21T11:36:58;103374.64;;;23.21;41.88
83625;BME280;73589;41.158;-73.238;2023-11-21T11:39:27;103373.95;;;23.75;40.90
83625;BME280;73589;41.158;-73.238;2023-11-21T11:41:52;103381.90;;;23.85;40.73
83625;BME280;73589;41.158;-73.238;2023-11-21T11:46:53;103380.98;;;23.82;40.69
83625;BME280;73589;41.158;-73.238;2023-11-21T11:49:24;103385.37;;;23.83;40.54
83625;BME280;73589;41.158;-73.238;2023-11-21T11:56:56;103375.00;;;22.32;43.80
83625;BME280;73589;41.158;-73.238;2023-11-21T11:59:25;103381.93;;;23.62;41.63
83625;BME280;73589;41.158;-73.238;2023-11-21T12:01:57;103382.63;;;23.99;40.84
83625;BME280;73589;41.158;-73.238;2023-11-21T12:04:28;103388.32;;;24.12;40.43
83625;BME280;73589;41.158;-73.238;2023-11-21T12:07:00;103387.51;;;24.10;40.42
83625;BME280;73589;41.158;-73.238;2023-11-21T12:09:29;103392.66;;;24.06;40.47
83625;BME280;73589;41.158;-73.238;2023-11-21T12:11:59;103390.63;;;23.98;40.81
83625;BME280;73589;41.158;-73.238;2023-11-21T12:14:30;103387.25;;;23.84;41.63
83625;BME280;73589;41.158;-73.238;2023-11-21T12:17:00;103386.42;;;24.26;41.26
83625;BME280;73589;41.158;-73.238;2023-11-21T12:19:30;103388.04;;;24.29;41.13
83625;BME280;73589;41.158;-73.238;2023-11-21T12:22:01;103393.92;;;24.27;41.44
83625;BME280;73589;41.158;-73.238;2023-11-21T12:24:31;103384.39;;;24.38;41.80
83625;BME280;73589;41.158;-73.238;2023-11-21T12:27:02;103380.45;;;24.33;41.55
83625;BME280;73589;41.158;-73.238;2023-11-21T12:29:33;103372.09;;;23.77;42.12
83625;BME280;73589;41.158;-73.238;2023-11-21T12:32:04;103379.54;;;23.16;42.51
83625;BME280;73589;41.158;-73.238;2023-11-21T12:34:34;103377.15;;;22.53;43.89
83625;BME280;73589;41.158;-73.238;2023-11-21T12:37:05;103376.91;;;24.03;40.99
83625;BME280;73589;41.158;-73.238;2023-11-21T12:39:34;103364.95;;;24.33;40.17
83625;BME280;73589;41.158;-73.238;2023-11-21T12:42:02;103359.81;;;24.42;39.80
83625;BME280;73589;41.158;-73.238;2023-11-21T12:44:34;103350.93;;;24.40;39.80
83625;BME280;73589;41.158;-73.238;2023-11-21T12:47:04;103354.71;;;24.40;39.78
83625;BME280;73589;41.158;-73.238;2023-11-21T12:49:39;103353.31;;;24.18;39.92
83625;BME280;73589;41.158;-73.238;2023-11-21T12:52:06;103348.79;;;23.86;40.02
83625;BME280;73589;41.158;-73.238;2023-11-21T12:54:35;103331.12;;;24.29;39.43